createdAt,value
2022-11-20T00:01:26.394Z,11.40
2022-11-20T00:03:56.681Z,11.30
2022-11-20T00:06:24.546Z,11.30
2022-11-20T00:08:55.809Z,11.30
2022-11-20T00:11:25.870Z,11.30
2022-11-20T00:13:58.021Z,11.30
2022-11-20T00:16:27.343Z,11.30
2022-11-20T00:18:55.628Z,11.30
2022-11-20T00:21:28.032Z,11.30
2022-11-20T00:23:57.592Z,11.30
2022-11-20T00:26:27.076Z,11.20
2022-11-20T00:28:59.685Z,11.30
2022-11-20T00:31:28.377Z,11.30
2022-11-20T00:33:55.273Z,11.30
2022-11-20T00:36:28.773Z,11.30
2022-11-20T00:38:58.894Z,11.20
2022-11-20T00:41:27.920Z,11.20
2022-11-20T00:43:56.560Z,11.20
2022-11-20T00:46:27.049Z,11.20
2022-11-20T00:48:54.129Z,11.20
2022-11-20T00:51:25.939Z,11.20
2022-11-20T00:53:53.045Z,11.20
2022-11-20T00:56:21.081Z,11.20
2022-11-20T00:58:50.194Z,11.20
2022-11-20T01:01:27.347Z,11.20
2022-11-20T01:03:57.246Z,11.20
2022-11-20T01:06:31.202Z,11.20
2022-11-20T01:09:01.460Z,11.20
2022-11-20T01:11:32.581Z,11.10
2022-11-20T01:14:01.630Z,11.20
2022-11-20T01:16:36.281Z,11.10
2022-11-20T01:19:08.804Z,11.10
2022-11-20T01:21:39.402Z,11.10
2022-11-20T01:24:09.180Z,11.10
2022-11-20T01:26:38.481Z,11.10
2022-11-20T01:29:07.038Z,11.10
2022-11-20T01:31:37.909Z,11.10
2022-11-20T01:34:13.182Z,11.10
2022-11-20T01:36:41.712Z,11.10
2022-11-20T01:39:15.606Z,11.10
2022-11-20T01:42:05.702Z,11.10
2022-11-20T01:44:59.743Z,11.10
2022-11-20T01:47:40.759Z,11.10
2022-11-20T01:50:19.294Z,11.10
2022-11-20T01:53:05.130Z,11.10
2022-11-20T01:55:42.556Z,11.10
2022-11-20T01:58:10.036Z,11.10
2022-11-20T02:00:37.015Z,11.10
2022-11-20T02:03:21.068Z,11.10
2022-11-20T02:06:02.724Z,11.10
2022-11-20T02:08:30.253Z,11.10
2022-11-20T02:10:58.173Z,11.10
2022-11-20T02:13:43.873Z,11.10
2022-11-20T02:16:22.026Z,11.00
2022-11-20T02:18:50.030Z,11.10
2022-11-20T02:21:42.840Z,11.10
2022-11-20T02:24:15.162Z,11.00
2022-11-20T02:26:56.562Z,11.00
2022-11-20T02:29:52.922Z,11.00
2022-11-20T02:32:27.988Z,11.00
2022-11-20T02:34:55.885Z,11.00
2022-11-20T02:37:24.162Z,11.00
2022-11-20T02:39:53.044Z,10.90
2022-11-20T02:42:20.355Z,10.90
2022-11-20T02:44:47.176Z,10.90
2022-11-20T02:47:14.038Z,10.90
2022-11-20T02:49:40.904Z,10.90
2022-11-20T02:52:07.763Z,10.90
2022-11-20T02:54:34.606Z,10.90
2022-11-20T02:57:01.464Z,10.90
2022-11-20T02:59:28.310Z,10.80
2022-11-20T03:01:55.139Z,10.80
2022-11-20T03:04:21.920Z,10.80
2022-11-20T03:06:48.736Z,10.80
2022-11-20T03:09:15.618Z,10.80
2022-11-20T03:11:42.450Z,10.80
2022-11-20T03:14:09.779Z,10.80
2022-11-20T03:16:36.630Z,10.80
2022-11-20T03:19:03.553Z,10.80
2022-11-20T03:21:30.508Z,10.80
2022-11-20T03:23:57.377Z,10.80
2022-11-20T03:26:27.630Z,10.80
2022-11-20T03:28:58.527Z,10.80
2022-11-20T03:31:32.353Z,10.80
2022-11-20T03:34:00.476Z,10.80
2022-11-20T03:36:28.443Z,10.70
2022-11-20T03:38:57.485Z,10.70
2022-11-20T03:41:30.898Z,10.80
2022-11-20T03:44:03.905Z,10.70
2022-11-20T03:46:31.238Z,10.70
2022-11-20T03:48:58.613Z,10.80
2022-11-20T03:51:30.488Z,10.70
2022-11-20T03:54:01.469Z,10.70
2022-11-20T03:56:32.936Z,10.70
2022-11-20T03:59:00.104Z,10.70
2022-11-20T04:01:31.999Z,10.70
2022-11-20T04:03:59.064Z,10.70
2022-11-20T04:06:38.274Z,10.70
2022-11-20T04:09:06.500Z,10.70
2022-11-20T04:11:36.823Z,10.80
2022-11-20T04:14:06.878Z,10.70
2022-11-20T04:16:36.712Z,10.80
2022-11-20T04:19:07.884Z,10.80
2022-11-20T04:21:34.871Z,10.80
2022-11-20T04:24:02.403Z,10.80
2022-11-20T04:26:31.400Z,10.80
2022-11-20T04:28:59.452Z,10.80
2022-11-20T04:31:33.040Z,10.80
2022-11-20T04:34:07.526Z,10.80
2022-11-20T04:36:35.023Z,10.80
2022-11-20T04:39:07.180Z,10.80
2022-11-20T04:41:37.266Z,10.80
2022-11-20T04:44:06.614Z,10.80
2022-11-20T04:46:41.585Z,10.80
2022-11-20T04:49:09.547Z,10.80
2022-11-20T04:51:36.530Z,10.80
2022-11-20T04:54:03.843Z,10.80
2022-11-20T04:56:30.773Z,10.80
2022-11-20T04:59:02.628Z,10.80
2022-11-20T05:01:29.844Z,10.80
2022-11-20T05:03:56.850Z,10.80
2022-11-20T05:06:23.852Z,10.70
2022-11-20T05:08:51.118Z,10.80
2022-11-20T05:11:21.848Z,10.80
2022-11-20T05:13:50.623Z,10.80
2022-11-20T05:16:27.597Z,10.80
2022-11-20T05:18:56.552Z,10.80
2022-11-20T05:21:23.945Z,10.80
2022-11-20T05:23:50.729Z,10.80
2022-11-20T05:26:24.118Z,10.80
2022-11-20T05:28:52.448Z,10.80
2022-11-20T05:31:27.210Z,10.80
2022-11-20T05:33:57.544Z,10.80
2022-11-20T05:36:25.333Z,10.80
2022-11-20T05:38:55.440Z,10.80
2022-11-20T05:41:25.951Z,10.80
2022-11-20T05:43:52.826Z,10.80
2022-11-20T05:46:27.785Z,10.80
2022-11-20T05:48:56.644Z,10.80
2022-11-20T05:51:23.763Z,10.80
2022-11-20T05:53:50.668Z,10.80
2022-11-20T05:56:21.470Z,10.80
2022-11-20T05:58:49.018Z,10.80
2022-11-20T06:01:25.403Z,10.80
2022-11-20T06:03:53.824Z,10.80
2022-11-20T06:06:21.755Z,10.80
2022-11-20T06:08:49.418Z,10.80
2022-11-20T06:11:17.469Z,10.80
2022-11-20T06:13:45.276Z,10.80
2022-11-20T06:16:15.918Z,10.80
2022-11-20T06:18:42.935Z,10.80
2022-11-20T06:21:14.092Z,10.80
2022-11-20T06:23:41.489Z,10.70
2022-11-20T06:26:12.700Z,10.80
2022-11-20T06:28:40.579Z,10.80
2022-11-20T06:31:10.814Z,10.80
2022-11-20T06:33:37.970Z,10.80
2022-11-20T06:36:10.571Z,10.70
2022-11-20T06:38:39.493Z,10.70
2022-11-20T06:41:08.152Z,10.70
2022-11-20T06:43:34.962Z,10.70
2022-11-20T06:46:01.826Z,10.70
2022-11-20T06:48:30.192Z,10.70
2022-11-20T06:50:58.207Z,10.70
2022-11-20T06:53:25.290Z,10.70
2022-11-20T06:55:53.563Z,10.70
2022-11-20T06:58:20.536Z,10.70
2022-11-20T07:00:47.457Z,10.70
2022-11-20T07:03:14.569Z,10.70
2022-11-20T07:05:41.841Z,10.70
2022-11-20T07:08:09.295Z,10.70
2022-11-20T07:10:36.429Z,10.70
2022-11-20T07:13:03.380Z,10.70
2022-11-20T07:15:30.887Z,10.70
2022-11-20T07:18:00.935Z,10.80
2022-11-20T07:20:28.269Z,10.70
2022-11-20T07:22:59.331Z,10.70
2022-11-20T07:25:28.354Z,10.70
2022-11-20T07:28:01.983Z,10.70
2022-11-20T07:30:29.664Z,10.70
2022-11-20T07:32:57.397Z,10.70
2022-11-20T07:35:26.030Z,10.70
2022-11-20T07:37:53.094Z,10.70
2022-11-20T07:40:20.841Z,10.80
2022-11-20T07:42:56.305Z,10.70
2022-11-20T07:45:25.666Z,10.70
2022-11-20T07:47:52.888Z,10.70
2022-11-20T07:50:21.258Z,10.70
2022-11-20T07:52:48.433Z,10.70
2022-11-20T07:55:16.127Z,10.80
2022-11-20T07:57:42.932Z,10.70
2022-11-20T08:00:12.330Z,10.80
2022-11-20T08:02:43.241Z,10.80
2022-11-20T08:05:11.867Z,10.80
2022-11-20T08:07:44.722Z,10.80
2022-11-20T08:10:16.213Z,10.80
2022-11-20T08:13:10.881Z,10.80
2022-11-20T08:15:41.193Z,10.80
2022-11-20T08:21:06.266Z,10.80
2022-11-20T08:23:33.987Z,10.80
2022-11-20T08:26:00.852Z,10.80
2022-11-20T08:28:27.759Z,10.80
2022-11-20T08:31:03.724Z,10.80
2022-11-20T08:33:33.517Z,10.80
2022-11-20T08:36:05.602Z,10.80
2022-11-20T08:38:33.378Z,10.80
2022-11-20T08:41:22.298Z,10.80
2022-11-20T08:43:50.029Z,10.80
2022-11-20T08:46:17.507Z,10.80
2022-11-20T08:48:45.614Z,10.90
2022-11-20T08:51:13.218Z,10.80
2022-11-20T08:53:40.759Z,10.80
2022-11-20T08:56:08.336Z,10.80
2022-11-20T08:58:55.098Z,10.80
2022-11-20T09:01:24.247Z,10.80
2022-11-20T09:03:51.783Z,10.80
2022-11-20T09:06:19.570Z,11.00
2022-11-20T09:08:47.013Z,10.80
2022-11-20T09:11:14.066Z,10.90
2022-11-20T09:13:41.132Z,10.90
2022-11-20T09:16:10.309Z,10.90
2022-11-20T09:18:38.773Z,10.90
2022-11-20T09:21:14.288Z,10.90
2022-11-20T09:23:42.518Z,10.90
2022-11-20T09:26:15.024Z,10.90
2022-11-20T09:28:42.451Z,10.90
2022-11-20T09:31:34.269Z,11.10
2022-11-20T09:34:01.198Z,10.90
2022-11-20T09:36:28.164Z,11.00
2022-11-20T09:38:55.393Z,11.00
2022-11-20T09:42:04.130Z,11.00
2022-11-20T09:44:55.885Z,11.00
2022-11-20T09:47:32.204Z,11.00
2022-11-20T09:50:05.252Z,11.00
2022-11-20T09:52:50.661Z,11.10
2022-11-20T09:55:18.210Z,11.10
2022-11-20T09:57:48.867Z,11.10
2022-11-20T10:00:17.880Z,11.10
2022-11-20T10:03:17.447Z,11.10
2022-11-20T10:05:55.309Z,11.20
2022-11-20T10:08:33.472Z,11.20
2022-11-20T10:11:16.097Z,11.30
2022-11-20T10:14:14.013Z,11.30
2022-11-20T10:16:50.034Z,11.30
2022-11-20T10:19:28.932Z,11.30
2022-11-20T10:22:15.835Z,11.30
2022-11-20T10:25:18.851Z,11.40
2022-11-20T10:28:09.913Z,11.40
2022-11-20T10:30:43.524Z,11.50
2022-11-20T10:33:49.976Z,11.50
2022-11-20T10:36:31.215Z,11.60
2022-11-20T10:39:17.717Z,11.60
2022-11-20T10:41:51.875Z,11.70
2022-11-20T10:45:05.761Z,11.80
2022-11-20T10:47:34.214Z,11.80
2022-11-20T10:50:22.584Z,11.90
2022-11-20T10:53:17.646Z,11.90
2022-11-20T10:56:08.431Z,12.00
2022-11-20T10:59:03.010Z,12.00
2022-11-20T11:01:34.330Z,12.10
2022-11-20T11:08:19.846Z,12.20
2022-11-20T11:14:57.960Z,12.50
2022-11-20T11:17:40.419Z,12.40
2022-11-20T11:20:29.962Z,12.40
2022-11-20T11:23:05.670Z,12.50
2022-11-20T11:25:45.388Z,12.60
2022-11-20T11:28:20.714Z,12.60
2022-11-20T11:31:01.158Z,12.70
2022-11-20T11:33:36.911Z,12.70
2022-11-20T11:36:29.896Z,12.80
2022-11-20T11:39:11.861Z,12.80
2022-11-20T11:41:39.663Z,12.80
2022-11-20T11:44:59.444Z,12.90
2022-11-20T11:47:40.944Z,12.80
2022-11-20T11:50:16.082Z,12.90
2022-11-20T11:53:01.416Z,13.00
2022-11-20T11:55:44.062Z,12.90
2022-11-20T12:02:05.361Z,12.90
2022-11-20T12:05:04.551Z,12.80
2022-11-20T12:11:31.014Z,12.80
2022-11-20T12:14:04.338Z,12.80
2022-11-20T12:16:37.345Z,12.80
2022-11-20T12:19:14.459Z,12.70
2022-11-20T12:22:11.151Z,12.70
2022-11-20T12:24:58.220Z,12.70
2022-11-20T12:27:48.472Z,12.70
2022-11-20T12:30:17.200Z,12.70
2022-11-20T12:33:14.572Z,12.70
2022-11-20T12:35:59.367Z,12.70
2022-11-20T12:38:53.754Z,12.70
2022-11-20T12:42:29.044Z,12.70
2022-11-20T12:45:22.692Z,12.70
2022-11-20T12:48:28.365Z,12.70
2022-11-20T12:51:15.645Z,12.70
2022-11-20T12:54:43.282Z,12.60
2022-11-20T12:57:50.115Z,12.60
2022-11-20T13:00:24.387Z,12.60
2022-11-20T13:03:10.054Z,12.60
2022-11-20T13:06:17.340Z,12.60
2022-11-20T13:09:42.860Z,12.70
2022-11-20T13:12:32.781Z,12.70
2022-11-20T13:15:19.691Z,12.70
2022-11-20T13:17:57.570Z,12.80
2022-11-20T13:20:25.164Z,12.80
2022-11-20T13:22:55.684Z,12.80
2022-11-20T13:25:35.596Z,12.80
2022-11-20T13:28:29.070Z,12.80
2022-11-20T13:30:58.146Z,12.80
2022-11-20T13:33:30.570Z,12.80
2022-11-20T13:36:19.611Z,12.80
2022-11-20T13:38:53.726Z,12.90
2022-11-20T13:41:34.440Z,12.90
2022-11-20T13:44:19.995Z,12.90
2022-11-20T13:46:48.264Z,12.90
2022-11-20T13:49:44.819Z,13.00
2022-11-20T13:53:08.987Z,13.00
2022-11-20T13:56:26.990Z,13.00
2022-11-20T13:59:27.355Z,13.00
2022-11-20T14:01:55.638Z,12.90
2022-11-20T14:04:39.047Z,12.90
2022-11-20T14:07:08.162Z,12.90
2022-11-20T14:09:36.303Z,12.90
2022-11-20T14:12:14.393Z,12.90
2022-11-20T14:14:53.917Z,12.90
2022-11-20T14:17:26.698Z,12.90
2022-11-20T14:19:55.913Z,12.90
2022-11-20T14:22:26.798Z,12.80
2022-11-20T14:25:27.880Z,12.80
2022-11-20T14:28:01.837Z,12.80
2022-11-20T14:30:40.140Z,12.80
2022-11-20T14:33:06.935Z,12.80
2022-11-20T14:35:46.006Z,12.70
2022-11-20T14:38:21.103Z,12.70
2022-11-20T14:40:47.955Z,12.70
2022-11-20T14:43:28.009Z,12.70
2022-11-20T14:46:03.530Z,12.60
2022-11-20T14:48:38.571Z,12.60
2022-11-20T14:51:05.888Z,12.60
2022-11-20T14:53:32.787Z,12.60
2022-11-20T15:28:17.856Z,10.20
2022-11-20T15:30:54.530Z,10.00
2022-11-20T15:33:52.927Z,10.10
2022-11-20T15:36:28.250Z,10.40
2022-11-20T15:38:55.124Z,10.60
2022-11-20T15:41:24.331Z,10.70
2022-11-20T15:43:57.986Z,10.80
2022-11-20T15:46:46.084Z,11.00
2022-11-20T15:49:27.655Z,11.10
2022-11-20T15:51:59.872Z,11.20
2022-11-20T15:54:34.870Z,11.30
2022-11-20T15:57:04.848Z,11.30
2022-11-20T15:59:37.917Z,11.40
2022-11-20T16:02:27.065Z,11.40
2022-11-20T16:05:01.196Z,11.50
2022-11-20T16:07:30.197Z,11.50
2022-11-20T16:10:04.129Z,11.60
2022-11-20T16:12:55.954Z,11.60
2022-11-20T16:15:41.291Z,11.60
2022-11-20T16:18:22.495Z,11.60
2022-11-20T16:20:53.619Z,11.70
2022-11-20T16:23:31.915Z,11.40
2022-11-20T16:25:58.674Z,11.70
2022-11-20T16:28:26.287Z,11.70
2022-11-20T16:30:53.000Z,11.70
2022-11-20T16:33:19.900Z,11.70
2022-11-20T16:35:46.752Z,11.70
2022-11-20T16:38:13.608Z,11.70
2022-11-20T16:40:40.394Z,11.60
2022-11-20T16:43:11.759Z,11.60
2022-11-20T16:45:45.496Z,11.60
2022-11-20T16:48:16.978Z,11.60
2022-11-20T16:50:54.169Z,11.60
2022-11-20T16:53:22.731Z,11.60
2022-11-20T16:55:49.804Z,11.60
2022-11-20T16:58:16.723Z,11.60
2022-11-20T17:00:49.977Z,11.60
2022-11-20T17:03:19.162Z,11.60
2022-11-20T17:05:46.029Z,11.60
2022-11-20T17:08:12.857Z,11.60
2022-11-20T17:10:39.628Z,11.60
2022-11-20T17:13:06.438Z,11.60
2022-11-20T17:15:33.380Z,11.60
2022-11-20T17:18:00.230Z,11.60
2022-11-20T17:20:27.020Z,11.60
2022-11-20T17:22:53.795Z,11.60
2022-11-20T17:25:20.646Z,11.60
2022-11-20T17:27:47.627Z,11.60
2022-11-20T17:30:14.792Z,11.60
2022-11-20T17:32:45.668Z,11.60
2022-11-20T17:35:12.441Z,11.60
2022-11-20T17:37:39.269Z,11.60
2022-11-20T17:40:06.822Z,11.60
2022-11-20T17:42:36.839Z,11.60
2022-11-20T17:45:05.226Z,11.60
2022-11-20T17:47:32.168Z,11.60
2022-11-20T17:49:59.025Z,11.50
2022-11-20T17:52:25.836Z,11.60
2022-11-20T17:54:55.830Z,11.50
2022-11-20T17:57:44.169Z,11.50
2022-11-20T18:00:13.125Z,11.50
2022-11-20T18:02:40.145Z,11.50
2022-11-20T18:05:07.429Z,11.50
2022-11-20T18:07:40.183Z,11.40
2022-11-20T18:10:09.792Z,11.40
2022-11-20T18:12:36.584Z,11.30
2022-11-20T18:15:04.086Z,11.30
2022-11-20T18:17:30.956Z,11.20
2022-11-20T18:20:21.862Z,11.20
2022-11-20T18:22:45.071Z,11.20
2022-11-20T18:25:11.980Z,11.10
2022-11-20T18:27:38.801Z,11.10
2022-11-20T18:30:06.473Z,11.10
2022-11-20T18:32:35.338Z,11.10
2022-11-20T18:35:02.312Z,11.00
2022-11-20T18:37:29.126Z,11.00
2022-11-20T18:39:56.914Z,11.00
2022-11-20T18:42:42.079Z,10.90
2022-11-20T18:45:09.486Z,10.80
2022-11-20T18:47:39.123Z,10.80
2022-11-20T18:50:09.031Z,10.80
2022-11-20T18:52:41.860Z,10.80
2022-11-20T18:55:10.008Z,10.80
2022-11-20T18:57:37.028Z,10.70
2022-11-20T19:00:09.187Z,10.70
2022-11-20T19:02:41.671Z,10.70
2022-11-20T19:05:14.906Z,10.70
2022-11-20T19:07:42.568Z,10.70
2022-11-20T19:10:09.722Z,10.60
2022-11-20T19:12:37.045Z,10.60
2022-11-20T19:15:04.562Z,10.60
2022-11-20T19:17:33.630Z,10.50
2022-11-20T19:20:00.938Z,10.50
2022-11-20T19:22:27.824Z,10.50
2022-11-20T19:24:54.749Z,10.50
2022-11-20T19:27:25.430Z,10.50
2022-11-20T19:29:53.175Z,10.50
2022-11-20T19:32:20.111Z,10.40
2022-11-20T19:34:46.986Z,10.50
2022-11-20T19:37:13.825Z,10.40
2022-11-20T19:39:40.645Z,10.40
2022-11-20T19:42:07.450Z,10.40
2022-11-20T19:44:34.450Z,10.40
2022-11-20T19:47:03.900Z,10.40
2022-11-20T19:49:32.065Z,10.40
2022-11-20T19:51:58.917Z,10.40
2022-11-20T19:54:25.773Z,10.40
2022-11-20T19:56:52.613Z,10.40
2022-11-20T19:59:19.385Z,10.40
2022-11-20T20:01:46.358Z,10.40
2022-11-20T20:04:13.389Z,10.30
2022-11-20T20:06:41.713Z,10.30
2022-11-20T20:09:12.186Z,10.30
2022-11-20T20:11:39.914Z,10.30
2022-11-20T20:14:10.547Z,10.40
2022-11-20T20:16:37.407Z,10.30
2022-11-20T20:19:05.578Z,10.30
2022-11-20T20:21:35.318Z,10.30
2022-11-20T20:24:02.649Z,10.30
2022-11-20T20:26:31.740Z,10.20
2022-11-20T20:29:00.737Z,10.20
2022-11-20T20:31:30.512Z,10.20
2022-11-20T20:33:58.166Z,10.20
2022-11-20T20:36:25.181Z,10.20
2022-11-20T20:38:54.890Z,10.10
2022-11-20T20:41:24.839Z,10.10
2022-11-20T20:44:11.328Z,10.10
2022-11-20T20:46:38.708Z,10.10
2022-11-20T20:49:07.359Z,10.10
2022-11-20T20:51:35.201Z,10.00
2022-11-20T20:54:02.785Z,10.10
2022-11-20T20:56:29.544Z,10.10
2022-11-20T20:58:56.445Z,10.00
2022-11-20T21:01:25.600Z,10.00
2022-11-20T21:03:52.650Z,10.10
2022-11-20T21:06:19.432Z,10.00
2022-11-20T21:08:46.546Z,10.00
2022-11-20T21:11:17.205Z,10.00
2022-11-20T21:13:46.494Z,10.00
2022-11-20T21:16:15.369Z,10.10
2022-11-20T21:18:42.441Z,10.10
2022-11-20T21:21:32.051Z,10.10
2022-11-20T21:23:59.284Z,10.10
2022-11-20T21:26:26.150Z,10.10
2022-11-20T21:28:53.715Z,10.10
2022-11-20T21:31:24.725Z,10.10
2022-11-20T21:33:54.319Z,10.10
2022-11-20T21:36:25.044Z,10.10
2022-11-20T21:38:57.392Z,10.00
2022-11-20T21:41:27.280Z,10.10
2022-11-20T21:44:28.965Z,10.10
2022-11-20T21:46:46.017Z,10.10
2022-11-20T21:49:14.491Z,10.00
2022-11-20T21:51:41.759Z,10.10
2022-11-20T21:54:10.952Z,10.10
2022-11-20T21:56:37.899Z,10.10
2022-11-20T21:59:04.700Z,10.10
2022-11-20T22:01:31.751Z,10.10
2022-11-20T22:04:02.116Z,10.00
2022-11-20T22:06:34.582Z,10.10
2022-11-20T22:09:03.549Z,10.00
2022-11-20T22:11:30.896Z,10.00
2022-11-20T22:14:16.904Z,10.00
2022-11-20T22:16:43.976Z,10.00
2022-11-20T22:19:10.994Z,10.00
2022-11-20T22:21:40.350Z,10.00
2022-11-20T22:24:08.291Z,10.10
2022-11-20T22:26:40.316Z,10.00
2022-11-20T22:29:18.424Z,10.10
2022-11-20T22:31:45.407Z,10.00
2022-11-20T22:34:13.839Z,10.00
2022-11-20T22:36:41.440Z,10.00
2022-11-20T22:39:08.376Z,10.10
2022-11-20T22:41:35.313Z,10.00
2022-11-20T22:44:08.054Z,10.10
2022-11-20T22:46:37.443Z,10.10
2022-11-20T22:49:08.658Z,10.10
2022-11-20T22:51:40.661Z,10.00
2022-11-20T22:54:10.969Z,10.00
2022-11-20T22:56:37.815Z,10.00
2022-11-20T22:59:04.862Z,10.00
2022-11-20T23:01:36.565Z,10.00
2022-11-20T23:04:08.109Z,10.00
2022-11-20T23:06:35.277Z,10.00
2022-11-20T23:09:07.337Z,10.00
2022-11-20T23:11:35.231Z,10.00
2022-11-20T23:14:12.914Z,9.90
2022-11-20T23:16:40.469Z,9.90
2022-11-20T23:19:11.624Z,10.00
2022-11-20T23:21:41.160Z,10.00
2022-11-20T23:24:09.796Z,9.90
2022-11-20T23:26:39.336Z,9.90
2022-11-20T23:29:07.099Z,9.90
2022-11-20T23:31:36.003Z,9.90
2022-11-20T23:34:03.388Z,10.00
2022-11-20T23:36:30.808Z,10.00
2022-11-20T23:38:57.721Z,10.00
2022-11-20T23:41:24.606Z,10.00
2022-11-20T23:43:52.772Z,10.00
2022-11-20T23:46:19.569Z,10.00
2022-11-20T23:48:46.436Z,10.00
2022-11-20T23:51:13.958Z,10.00
2022-11-20T23:53:40.907Z,10.10
2022-11-20T23:56:08.256Z,10.10
2022-11-20T23:58:38.365Z,10.10
